sensor_id;sensor_type;location;lat;lon;timestamp;temperature;humidity
53876;DHT22;39789;53.216;5.624;2023-02-15T00:01:34;1.10;99.90
53876;DHT22;39789;53.216;5.624;2023-02-15T00:04:00;1.20;99.90
53876;DHT22;39789;53.216;5.624;2023-02-15T00:06:26;1.20;99.90
53876;DHT22;39789;53.216;5.624;2023-02-15T00:08:53;1.10;99.90
53876;DHT22;39789;53.216;5.624;2023-02-15T00:11:19;1.10;99.90
53876;DHT22;39789;53.216;5.624;2023-02-15T00:14:22;1.10;99.90
53876;DHT22;39789;53.216;5.624;2023-02-15T00:16:49;1.10;99.90
53876;DHT22;39789;53.216;5.624;2023-02-15T00:19:17;1.00;99.90
53876;DHT22;39789;53.216;5.624;2023-02-15T00:21:43;0.80;99.90
53876;DHT22;39789;53.216;5.624;2023-02-15T00:24:11;0.90;99.90
53876;DHT22;39789;53.216;5.624;2023-02-15T00:26:38;0.90;99.90
53876;DHT22;39789;53.216;5.624;2023-02-15T00:29:05;0.90;99.90
53876;DHT22;39789;53.216;5.624;2023-02-15T00:31:32;0.90;99.90
53876;DHT22;39789;53.216;5.624;2023-02-15T00:34:05;1.00;99.90
53876;DHT22;39789;53.216;5.624;2023-02-15T00:36:31;1.00;99.90
53876;DHT22;39789;53.216;5.624;2023-02-15T00:38:57;1.00;99.90
53876;DHT22;39789;53.216;5.624;2023-02-15T00:41:23;1.10;99.90
53876;DHT22;39789;53.216;5.624;2023-02-15T00:43:49;1.10;99.90
53876;DHT22;39789;53.216;5.624;2023-02-15T00:46:15;1.20;99.90
53876;DHT22;39789;53.216;5.624;2023-02-15T00:48:40;1.20;99.90
53876;DHT22;39789;53.216;5.624;2023-02-15T00:51:06;1.80;99.90
53876;DHT22;39789;53.216;5.624;2023-02-15T00:53:31;1.60;99.90
53876;DHT22;39789;53.216;5.624;2023-02-15T00:55:58;1.40;99.90
53876;DHT22;39789;53.216;5.624;2023-02-15T00:58:24;1.40;99.90
53876;DHT22;39789;53.216;5.624;2023-02-15T01:00:50;1.30;99.90
53876;DHT22;39789;53.216;5.624;2023-02-15T01:03:16;1.30;99.90
53876;DHT22;39789;53.216;5.624;2023-02-15T01:05:43;1.40;99.90
53876;DHT22;39789;53.216;5.624;2023-02-15T01:08:09;1.60;99.90
53876;DHT22;39789;53.216;5.624;2023-02-15T01:10:35;1.40;99.90
53876;DHT22;39789;53.216;5.624;2023-02-15T01:13:01;1.70;99.90
53876;DHT22;39789;53.216;5.624;2023-02-15T01:15:27;2.10;99.90
53876;DHT22;39789;53.216;5.624;2023-02-15T01:17:52;1.60;99.90
53876;DHT22;39789;53.216;5.624;2023-02-15T01:20:25;1.70;99.90
53876;DHT22;39789;53.216;5.624;2023-02-15T01:22:52;2.30;99.90
53876;DHT22;39789;53.216;5.624;2023-02-15T01:25:19;1.70;99.90
53876;DHT22;39789;53.216;5.624;2023-02-15T01:27:45;1.70;99.90
53876;DHT22;39789;53.216;5.624;2023-02-15T01:30:12;1.70;99.90
53876;DHT22;39789;53.216;5.624;2023-02-15T01:32:38;1.70;99.90
53876;DHT22;39789;53.216;5.624;2023-02-15T01:35:04;1.70;99.90
53876;DHT22;39789;53.216;5.624;2023-02-15T01:37:33;1.70;99.90
53876;DHT22;39789;53.216;5.624;2023-02-15T01:40:00;1.60;99.90
53876;DHT22;39789;53.216;5.624;2023-02-15T01:42:27;1.50;99.90
53876;DHT22;39789;53.216;5.624;2023-02-15T01:44:54;1.90;99.90
53876;DHT22;39789;53.216;5.624;2023-02-15T01:47:38;1.50;99.90
53876;DHT22;39789;53.216;5.624;2023-02-15T01:50:12;1.50;99.90
53876;DHT22;39789;53.216;5.624;2023-02-15T01:52:44;1.60;99.90
53876;DHT22;39789;53.216;5.624;2023-02-15T01:55:11;1.60;99.90
53876;DHT22;39789;53.216;5.624;2023-02-15T01:57:38;1.60;99.90
53876;DHT22;39789;53.216;5.624;2023-02-15T02:00:06;1.40;99.90
53876;DHT22;39789;53.216;5.624;2023-02-15T02:02:31;1.30;99.90
53876;DHT22;39789;53.216;5.624;2023-02-15T02:05:03;1.60;99.90
53876;DHT22;39789;53.216;5.624;2023-02-15T02:07:37;1.10;99.90
53876;DHT22;39789;53.216;5.624;2023-02-15T02:10:05;1.10;99.90
53876;DHT22;39789;53.216;5.624;2023-02-15T02:12:31;1.00;99.90
53876;DHT22;39789;53.216;5.624;2023-02-15T02:14:58;0.90;99.90
53876;DHT22;39789;53.216;5.624;2023-02-15T02:17:45;1.20;99.90
53876;DHT22;39789;53.216;5.624;2023-02-15T02:23:19;0.80;99.90
53876;DHT22;39789;53.216;5.624;2023-02-15T02:30:04;0.70;99.90
53876;DHT22;39789;53.216;5.624;2023-02-15T02:32:07;0.70;99.90
53876;DHT22;39789;53.216;5.624;2023-02-15T02:35:11;1.00;99.90
53876;DHT22;39789;53.216;5.624;2023-02-15T02:41:13;0.80;99.90
53876;DHT22;39789;53.216;5.624;2023-02-15T02:47:12;0.70;99.90
53876;DHT22;39789;53.216;5.624;2023-02-15T02:49:41;0.70;99.90
53876;DHT22;39789;53.216;5.624;2023-02-15T02:52:37;1.20;99.90
53876;DHT22;39789;53.216;5.624;2023-02-15T02:55:07;0.80;99.90
53876;DHT22;39789;53.216;5.624;2023-02-15T02:57:33;0.80;99.90
53876;DHT22;39789;53.216;5.624;2023-02-15T03:00:03;0.80;99.90
53876;DHT22;39789;53.216;5.624;2023-02-15T03:02:32;0.80;99.90
53876;DHT22;39789;53.216;5.624;2023-02-15T03:05:03;0.80;99.90
53876;DHT22;39789;53.216;5.624;2023-02-15T03:07:31;0.80;99.90
53876;DHT22;39789;53.216;5.624;2023-02-15T03:10:00;0.80;99.90
53876;DHT22;39789;53.216;5.624;2023-02-15T03:15:16;1.00;99.90
53876;DHT22;39789;53.216;5.624;2023-02-15T03:17:47;0.90;99.90
53876;DHT22;39789;53.216;5.624;2023-02-15T03:22:49;0.90;99.90
53876;DHT22;39789;53.216;5.624;2023-02-15T03:25:25;0.90;99.90
53876;DHT22;39789;53.216;5.624;2023-02-15T03:27:56;0.90;99.90
53876;DHT22;39789;53.216;5.624;2023-02-15T03:30:25;1.40;99.90
53876;DHT22;39789;53.216;5.624;2023-02-15T03:32:52;0.70;99.90
53876;DHT22;39789;53.216;5.624;2023-02-15T03:35:23;0.70;99.90
53876;DHT22;39789;53.216;5.624;2023-02-15T03:38:00;1.60;99.90
53876;DHT22;39789;53.216;5.624;2023-02-15T03:40:37;0.60;99.90
53876;DHT22;39789;53.216;5.624;2023-02-15T03:43:45;0.50;99.90
53876;DHT22;39789;53.216;5.624;2023-02-15T03:49:42;0.20;99.90
53876;DHT22;39789;53.216;5.624;2023-02-15T03:52:11;0.00;99.90
53876;DHT22;39789;53.216;5.624;2023-02-15T03:54:38;0.00;99.90
53876;DHT22;39789;53.216;5.624;2023-02-15T03:57:15;0.10;99.90
53876;DHT22;39789;53.216;5.624;2023-02-15T04:00:02;0.10;99.90
53876;DHT22;39789;53.216;5.624;2023-02-15T04:03:08;0.10;99.90
53876;DHT22;39789;53.216;5.624;2023-02-15T04:05:34;0.20;99.90
53876;DHT22;39789;53.216;5.624;2023-02-15T04:08:01;1.00;99.90
53876;DHT22;39789;53.216;5.624;2023-02-15T04:10:26;0.30;99.90
53876;DHT22;39789;53.216;5.624;2023-02-15T04:13:10;0.30;99.90
53876;DHT22;39789;53.216;5.624;2023-02-15T04:15:36;1.20;99.90
53876;DHT22;39789;53.216;5.624;2023-02-15T04:18:24;1.60;99.90
53876;DHT22;39789;53.216;5.624;2023-02-15T04:21:08;0.70;99.90
53876;DHT22;39789;53.216;5.624;2023-02-15T04:23:52;1.10;99.90
53876;DHT22;39789;53.216;5.624;2023-02-15T04:26:36;0.30;99.90
53876;DHT22;39789;53.216;5.624;2023-02-15T04:29:02;1.30;99.90
53876;DHT22;39789;53.216;5.624;2023-02-15T04:31:27;0.30;99.90
53876;DHT22;39789;53.216;5.624;2023-02-15T04:33:53;0.60;99.90
53876;DHT22;39789;53.216;5.624;2023-02-15T04:36:18;0.70;99.90
53876;DHT22;39789;53.216;5.624;2023-02-15T04:38:44;0.70;99.90
53876;DHT22;39789;53.216;5.624;2023-02-15T04:41:10;0.70;99.90
53876;DHT22;39789;53.216;5.624;2023-02-15T04:43:37;0.70;99.90
53876;DHT22;39789;53.216;5.624;2023-02-15T04:46:03;0.10;99.90
53876;DHT22;39789;53.216;5.624;2023-02-15T04:48:29;0.00;99.90
53876;DHT22;39789;53.216;5.624;2023-02-15T04:50:54;0.70;99.90
53876;DHT22;39789;53.216;5.624;2023-02-15T04:53:20;0.60;99.90
53876;DHT22;39789;53.216;5.624;2023-02-15T04:55:45;0.40;99.90
53876;DHT22;39789;53.216;5.624;2023-02-15T04:58:11;0.00;99.90
53876;DHT22;39789;53.216;5.624;2023-02-15T05:00:37;0.60;99.90
53876;DHT22;39789;53.216;5.624;2023-02-15T05:03:02;0.00;99.90
53876;DHT22;39789;53.216;5.624;2023-02-15T05:05:28;0.30;99.90
53876;DHT22;39789;53.216;5.624;2023-02-15T05:07:54;0.60;99.90
53876;DHT22;39789;53.216;5.624;2023-02-15T05:10:20;0.00;99.90
53876;DHT22;39789;53.216;5.624;2023-02-15T05:12:45;1.20;99.90
53876;DHT22;39789;53.216;5.624;2023-02-15T05:15:11;0.30;99.90
53876;DHT22;39789;53.216;5.624;2023-02-15T05:17:36;0.60;99.90
53876;DHT22;39789;53.216;5.624;2023-02-15T05:20:03;1.20;99.90
53876;DHT22;39789;53.216;5.624;2023-02-15T05:22:29;0.00;99.90
53876;DHT22;39789;53.216;5.624;2023-02-15T05:24:54;1.10;99.90
53876;DHT22;39789;53.216;5.624;2023-02-15T05:27:38;0.80;99.90
53876;DHT22;39789;53.216;5.624;2023-02-15T05:30:22;0.10;99.90
53876;DHT22;39789;53.216;5.624;2023-02-15T05:32:48;0.70;99.90
53876;DHT22;39789;53.216;5.624;2023-02-15T05:35:17;0.00;99.90
53876;DHT22;39789;53.216;5.624;2023-02-15T05:37:43;1.00;99.90
53876;DHT22;39789;53.216;5.624;2023-02-15T05:40:09;1.30;99.90
53876;DHT22;39789;53.216;5.624;2023-02-15T05:42:34;0.00;99.90
53876;DHT22;39789;53.216;5.624;2023-02-15T05:45:00;0.80;99.90
53876;DHT22;39789;53.216;5.624;2023-02-15T05:47:25;-0.10;99.90
53876;DHT22;39789;53.216;5.624;2023-02-15T05:49:51;0.00;99.90
53876;DHT22;39789;53.216;5.624;2023-02-15T05:52:17;0.90;99.90
53876;DHT22;39789;53.216;5.624;2023-02-15T05:54:42;-0.20;99.90
53876;DHT22;39789;53.216;5.624;2023-02-15T05:57:08;-0.10;99.90
53876;DHT22;39789;53.216;5.624;2023-02-15T05:59:34;0.50;99.90
53876;DHT22;39789;53.216;5.624;2023-02-15T06:01:59;0.20;99.90
53876;DHT22;39789;53.216;5.624;2023-02-15T06:04:25;0.80;99.90
53876;DHT22;39789;53.216;5.624;2023-02-15T06:06:50;0.00;99.90
53876;DHT22;39789;53.216;5.624;2023-02-15T06:09:16;0.40;99.90
53876;DHT22;39789;53.216;5.624;2023-02-15T06:11:44;0.60;99.90
53876;DHT22;39789;53.216;5.624;2023-02-15T06:14:10;0.10;99.90
53876;DHT22;39789;53.216;5.624;2023-02-15T06:16:36;0.80;99.90
53876;DHT22;39789;53.216;5.624;2023-02-15T06:19:02;0.40;99.90
53876;DHT22;39789;53.216;5.624;2023-02-15T06:21:28;1.00;99.90
53876;DHT22;39789;53.216;5.624;2023-02-15T06:23:53;0.10;99.90
53876;DHT22;39789;53.216;5.624;2023-02-15T06:26:19;0.60;99.90
53876;DHT22;39789;53.216;5.624;2023-02-15T06:28:44;0.10;99.90
53876;DHT22;39789;53.216;5.624;2023-02-15T06:31:10;0.10;99.90
53876;DHT22;39789;53.216;5.624;2023-02-15T06:33:36;0.50;99.90
53876;DHT22;39789;53.216;5.624;2023-02-15T06:36:01;0.80;99.90
53876;DHT22;39789;53.216;5.624;2023-02-15T06:38:29;0.20;99.90
53876;DHT22;39789;53.216;5.624;2023-02-15T06:40:54;1.00;99.90
53876;DHT22;39789;53.216;5.624;2023-02-15T06:43:20;1.00;99.90
53876;DHT22;39789;53.216;5.624;2023-02-15T06:45:46;0.20;99.90
53876;DHT22;39789;53.216;5.624;2023-02-15T06:48:11;1.20;99.90
53876;DHT22;39789;53.216;5.624;2023-02-15T06:50:37;0.70;99.90
53876;DHT22;39789;53.216;5.624;2023-02-15T06:53:03;0.30;99.90
53876;DHT22;39789;53.216;5.624;2023-02-15T06:55:28;1.00;99.90
53876;DHT22;39789;53.216;5.624;2023-02-15T06:57:54;0.20;99.90
53876;DHT22;39789;53.216;5.624;2023-02-15T07:00:20;0.20;99.90
53876;DHT22;39789;53.216;5.624;2023-02-15T07:02:47;0.00;99.90
53876;DHT22;39789;53.216;5.624;2023-02-15T07:05:13;0.00;99.90
53876;DHT22;39789;53.216;5.624;2023-02-15T07:07:38;0.00;99.90
53876;DHT22;39789;53.216;5.624;2023-02-15T07:10:04;1.10;99.90
53876;DHT22;39789;53.216;5.624;2023-02-15T07:12:30;0.10;99.90
53876;DHT22;39789;53.216;5.624;2023-02-15T07:15:14;1.00;99.90
53876;DHT22;39789;53.216;5.624;2023-02-15T07:17:40;0.40;99.90
53876;DHT22;39789;53.216;5.624;2023-02-15T07:20:20;0.30;99.90
53876;DHT22;39789;53.216;5.624;2023-02-15T07:22:46;0.30;99.90
53876;DHT22;39789;53.216;5.624;2023-02-15T07:25:12;0.30;99.90
53876;DHT22;39789;53.216;5.624;2023-02-15T07:27:39;0.30;99.90
53876;DHT22;39789;53.216;5.624;2023-02-15T07:30:06;1.20;99.90
53876;DHT22;39789;53.216;5.624;2023-02-15T07:32:32;0.30;99.90
53876;DHT22;39789;53.216;5.624;2023-02-15T07:34:58;0.90;99.90
53876;DHT22;39789;53.216;5.624;2023-02-15T07:37:24;0.50;99.90
53876;DHT22;39789;53.216;5.624;2023-02-15T07:39:49;0.60;99.90
53876;DHT22;39789;53.216;5.624;2023-02-15T07:42:15;0.60;99.90
53876;DHT22;39789;53.216;5.624;2023-02-15T07:44:40;0.40;99.90
53876;DHT22;39789;53.216;5.624;2023-02-15T07:47:06;0.40;99.90
53876;DHT22;39789;53.216;5.624;2023-02-15T07:49:32;2.00;99.90
53876;DHT22;39789;53.216;5.624;2023-02-15T07:52:00;0.50;99.90
53876;DHT22;39789;53.216;5.624;2023-02-15T07:54:26;1.20;99.90
53876;DHT22;39789;53.216;5.624;2023-02-15T07:56:51;1.00;99.90
53876;DHT22;39789;53.216;5.624;2023-02-15T07:59:17;1.00;99.90
53876;DHT22;39789;53.216;5.624;2023-02-15T08:01:42;0.80;99.90
53876;DHT22;39789;53.216;5.624;2023-02-15T08:04:08;1.00;99.90
53876;DHT22;39789;53.216;5.624;2023-02-15T08:06:37;0.80;99.90
53876;DHT22;39789;53.216;5.624;2023-02-15T08:09:07;0.80;99.90
53876;DHT22;39789;53.216;5.624;2023-02-15T08:11:35;0.80;99.90
53876;DHT22;39789;53.216;5.624;2023-02-15T08:14:09;1.00;99.90
53876;DHT22;39789;53.216;5.624;2023-02-15T08:19:08;1.10;99.90
53876;DHT22;39789;53.216;5.624;2023-02-15T08:21:36;1.20;99.90
53876;DHT22;39789;53.216;5.624;2023-02-15T08:24:03;1.30;99.90
53876;DHT22;39789;53.216;5.624;2023-02-15T08:26:29;1.30;99.90
53876;DHT22;39789;53.216;5.624;2023-02-15T08:28:56;1.40;99.90
53876;DHT22;39789;53.216;5.624;2023-02-15T08:31:22;1.60;99.90
53876;DHT22;39789;53.216;5.624;2023-02-15T08:33:50;1.60;99.90
53876;DHT22;39789;53.216;5.624;2023-02-15T08:36:18;1.50;99.90
53876;DHT22;39789;53.216;5.624;2023-02-15T08:38:44;2.00;99.90
53876;DHT22;39789;53.216;5.624;2023-02-15T08:41:16;1.70;99.90
53876;DHT22;39789;53.216;5.624;2023-02-15T08:43:42;1.80;99.90
53876;DHT22;39789;53.216;5.624;2023-02-15T08:46:09;1.80;99.90
53876;DHT22;39789;53.216;5.624;2023-02-15T08:48:35;1.90;99.90
53876;DHT22;39789;53.216;5.624;2023-02-15T08:51:12;2.00;99.90
53876;DHT22;39789;53.216;5.624;2023-02-15T08:53:41;2.10;99.90
53876;DHT22;39789;53.216;5.624;2023-02-15T08:56:07;2.20;99.90
53876;DHT22;39789;53.216;5.624;2023-02-15T08:58:33;2.30;99.90
53876;DHT22;39789;53.216;5.624;2023-02-15T09:00:59;2.40;99.90
53876;DHT22;39789;53.216;5.624;2023-02-15T09:03:28;2.50;99.90
53876;DHT22;39789;53.216;5.624;2023-02-15T09:05:59;2.50;99.90
53876;DHT22;39789;53.216;5.624;2023-02-15T09:08:25;2.60;99.90
53876;DHT22;39789;53.216;5.624;2023-02-15T09:10:51;2.70;99.90
53876;DHT22;39789;53.216;5.624;2023-02-15T09:13:16;2.90;99.90
53876;DHT22;39789;53.216;5.624;2023-02-15T09:15:42;3.00;99.90
53876;DHT22;39789;53.216;5.624;2023-02-15T09:18:07;3.10;99.90
53876;DHT22;39789;53.216;5.624;2023-02-15T09:20:36;3.10;99.90
53876;DHT22;39789;53.216;5.624;2023-02-15T09:23:02;3.20;99.90
53876;DHT22;39789;53.216;5.624;2023-02-15T09:25:27;3.30;99.90
53876;DHT22;39789;53.216;5.624;2023-02-15T09:27:53;3.30;99.90
53876;DHT22;39789;53.216;5.624;2023-02-15T09:30:19;3.40;99.90
53876;DHT22;39789;53.216;5.624;2023-02-15T09:32:44;3.50;99.90
53876;DHT22;39789;53.216;5.624;2023-02-15T09:35:13;3.70;99.90
53876;DHT22;39789;53.216;5.624;2023-02-15T09:37:38;4.40;99.90
53876;DHT22;39789;53.216;5.624;2023-02-15T09:40:04;3.90;99.90
53876;DHT22;39789;53.216;5.624;2023-02-15T09:48:41;4.40;99.90
53876;DHT22;39789;53.216;5.624;2023-02-15T09:51:28;4.50;99.90
53876;DHT22;39789;53.216;5.624;2023-02-15T09:54:14;4.60;99.90
53876;DHT22;39789;53.216;5.624;2023-02-15T09:56:51;4.70;99.90
53876;DHT22;39789;53.216;5.624;2023-02-15T10:02:11;5.00;99.90
53876;DHT22;39789;53.216;5.624;2023-02-15T10:04:48;5.10;99.90
53876;DHT22;39789;53.216;5.624;2023-02-15T10:16:30;5.60;99.90
53876;DHT22;39789;53.216;5.624;2023-02-15T10:19:17;5.80;99.90
53876;DHT22;39789;53.216;5.624;2023-02-15T10:27:15;6.10;99.90
53876;DHT22;39789;53.216;5.624;2023-02-15T10:29:57;6.20;99.90
53876;DHT22;39789;53.216;5.624;2023-02-15T10:32:28;6.40;99.90
53876;DHT22;39789;53.216;5.624;2023-02-15T10:35:07;6.50;99.90
53876;DHT22;39789;53.216;5.624;2023-02-15T10:37:59;6.60;99.90
53876;DHT22;39789;53.216;5.624;2023-02-15T10:43:20;6.80;99.90
53876;DHT22;39789;53.216;5.624;2023-02-15T10:57:23;7.00;99.90
53876;DHT22;39789;53.216;5.624;2023-02-15T11:00:09;7.10;99.90
53876;DHT22;39789;53.216;5.624;2023-02-15T11:03:02;7.10;99.90
53876;DHT22;39789;53.216;5.624;2023-02-15T11:05:39;7.20;99.90
53876;DHT22;39789;53.216;5.624;2023-02-15T11:08:09;7.30;99.90
53876;DHT22;39789;53.216;5.624;2023-02-15T11:10:39;7.40;99.90
53876;DHT22;39789;53.216;5.624;2023-02-15T11:13:14;7.40;99.90
53876;DHT22;39789;53.216;5.624;2023-02-15T11:16:04;7.50;99.90
53876;DHT22;39789;53.216;5.624;2023-02-15T11:23:22;7.80;99.90
53876;DHT22;39789;53.216;5.624;2023-02-15T11:25:59;7.80;99.90
53876;DHT22;39789;53.216;5.624;2023-02-15T11:28:34;7.90;99.90
53876;DHT22;39789;53.216;5.624;2023-02-15T11:31:19;8.00;99.90
53876;DHT22;39789;53.216;5.624;2023-02-15T11:33:49;8.10;99.90
53876;DHT22;39789;53.216;5.624;2023-02-15T11:36:26;8.10;99.90
53876;DHT22;39789;53.216;5.624;2023-02-15T11:39:14;8.20;99.90
53876;DHT22;39789;53.216;5.624;2023-02-15T11:41:48;8.30;99.90
53876;DHT22;39789;53.216;5.624;2023-02-15T11:44:32;8.40;99.90
53876;DHT22;39789;53.216;5.624;2023-02-15T11:46:59;8.50;99.90
53876;DHT22;39789;53.216;5.624;2023-02-15T11:49:34;8.50;99.90
53876;DHT22;39789;53.216;5.624;2023-02-15T11:52:07;8.60;99.90
53876;DHT22;39789;53.216;5.624;2023-02-15T11:54:39;8.70;99.90
53876;DHT22;39789;53.216;5.624;2023-02-15T11:57:15;8.70;99.90
53876;DHT22;39789;53.216;5.624;2023-02-15T11:59:49;8.70;99.90
53876;DHT22;39789;53.216;5.624;2023-02-15T12:02:19;8.70;99.90
53876;DHT22;39789;53.216;5.624;2023-02-15T12:04:58;8.80;99.90
53876;DHT22;39789;53.216;5.624;2023-02-15T12:07:38;8.80;99.90
53876;DHT22;39789;53.216;5.624;2023-02-15T12:10:23;8.70;99.90
53876;DHT22;39789;53.216;5.624;2023-02-15T12:13:13;8.80;99.90
53876;DHT22;39789;53.216;5.624;2023-02-15T12:15:43;8.80;99.90
53876;DHT22;39789;53.216;5.624;2023-02-15T12:21:10;8.80;99.90
53876;DHT22;39789;53.216;5.624;2023-02-15T12:23:46;8.90;99.90
53876;DHT22;39789;53.216;5.624;2023-02-15T12:26:14;9.00;99.90
53876;DHT22;39789;53.216;5.624;2023-02-15T12:28:49;9.00;99.90
53876;DHT22;39789;53.216;5.624;2023-02-15T12:31:23;9.00;99.90
53876;DHT22;39789;53.216;5.624;2023-02-15T12:33:53;9.00;99.90
53876;DHT22;39789;53.216;5.624;2023-02-15T12:36:21;9.10;99.90
53876;DHT22;39789;53.216;5.624;2023-02-15T12:39:16;9.10;99.90
53876;DHT22;39789;53.216;5.624;2023-02-15T12:42:24;9.20;99.90
53876;DHT22;39789;53.216;5.624;2023-02-15T12:45:03;9.20;99.90
53876;DHT22;39789;53.216;5.624;2023-02-15T12:47:30;9.30;99.90
53876;DHT22;39789;53.216;5.624;2023-02-15T12:50:14;9.20;99.90
53876;DHT22;39789;53.216;5.624;2023-02-15T12:52:46;9.20;99.90
53876;DHT22;39789;53.216;5.624;2023-02-15T12:55:39;9.20;99.90
53876;DHT22;39789;53.216;5.624;2023-02-15T12:58:18;9.10;99.90
53876;DHT22;39789;53.216;5.624;2023-02-15T13:00:44;9.10;99.90
53876;DHT22;39789;53.216;5.624;2023-02-15T13:03:22;9.00;99.90
53876;DHT22;39789;53.216;5.624;2023-02-15T13:05:53;8.90;99.90
53876;DHT22;39789;53.216;5.624;2023-02-15T13:08:27;8.90;99.90
53876;DHT22;39789;53.216;5.624;2023-02-15T13:11:10;8.80;99.90
53876;DHT22;39789;53.216;5.624;2023-02-15T13:14:00;8.90;99.90
53876;DHT22;39789;53.216;5.624;2023-02-15T13:16:35;8.90;99.90
53876;DHT22;39789;53.216;5.624;2023-02-15T13:19:15;8.90;99.90
53876;DHT22;39789;53.216;5.624;2023-02-15T13:21:45;8.90;99.90
53876;DHT22;39789;53.216;5.624;2023-02-15T13:24:18;8.90;99.90
53876;DHT22;39789;53.216;5.624;2023-02-15T13:26:45;8.90;99.90
53876;DHT22;39789;53.216;5.624;2023-02-15T13:29:18;8.90;99.90
53876;DHT22;39789;53.216;5.624;2023-02-15T13:31:46;8.90;99.90
53876;DHT22;39789;53.216;5.624;2023-02-15T13:34:17;8.80;99.90
53876;DHT22;39789;53.216;5.624;2023-02-15T13:42:34;8.80;99.90
53876;DHT22;39789;53.216;5.624;2023-02-15T13:51:07;8.70;99.90
53876;DHT22;39789;53.216;5.624;2023-02-15T13:53:56;8.70;99.90
53876;DHT22;39789;53.216;5.624;2023-02-15T13:57:38;8.60;99.90
53876;DHT22;39789;53.216;5.624;2023-02-15T14:02:38;8.60;99.90
53876;DHT22;39789;53.216;5.624;2023-02-15T14:05:34;8.60;99.90
53876;DHT22;39789;53.216;5.624;2023-02-15T14:08:33;8.60;99.90
53876;DHT22;39789;53.216;5.624;2023-02-15T14:13:35;8.60;99.90
53876;DHT22;39789;53.216;5.624;2023-02-15T14:16:30;8.70;99.90
53876;DHT22;39789;53.216;5.624;2023-02-15T14:21:58;8.70;99.90
53876;DHT22;39789;53.216;5.624;2023-02-15T14:27:23;8.80;99.90
53876;DHT22;39789;53.216;5.624;2023-02-15T14:29:57;8.80;99.90
53876;DHT22;39789;53.216;5.624;2023-02-15T14:32:39;8.90;99.90
53876;DHT22;39789;53.216;5.624;2023-02-15T14:35:17;8.90;99.90
53876;DHT22;39789;53.216;5.624;2023-02-15T14:49:31;8.80;99.90
53876;DHT22;39789;53.216;5.624;2023-02-15T14:52:08;8.70;99.90
53876;DHT22;39789;53.216;5.624;2023-02-15T15:02:22;8.70;99.90
53876;DHT22;39789;53.216;5.624;2023-02-15T15:07:43;8.50;99.90
53876;DHT22;39789;53.216;5.624;2023-02-15T15:12:49;8.50;99.90
53876;DHT22;39789;53.216;5.624;2023-02-15T15:50:39;7.80;99.90
53876;DHT22;39789;53.216;5.624;2023-02-15T15:53:06;7.70;99.90
53876;DHT22;39789;53.216;5.624;2023-02-15T15:55:38;7.70;99.90
53876;DHT22;39789;53.216;5.624;2023-02-15T15:58:06;7.60;99.90
53876;DHT22;39789;53.216;5.624;2023-02-15T16:00:42;7.60;99.90
53876;DHT22;39789;53.216;5.624;2023-02-15T16:03:18;7.50;99.90
53876;DHT22;39789;53.216;5.624;2023-02-15T16:05:45;7.50;99.90
53876;DHT22;39789;53.216;5.624;2023-02-15T16:08:11;7.50;99.90
53876;DHT22;39789;53.216;5.624;2023-02-15T16:10:36;7.40;99.90
53876;DHT22;39789;53.216;5.624;2023-02-15T16:13:05;7.40;99.90
53876;DHT22;39789;53.216;5.624;2023-02-15T16:15:36;7.30;99.90
53876;DHT22;39789;53.216;5.624;2023-02-15T16:18:02;7.20;99.90
53876;DHT22;39789;53.216;5.624;2023-02-15T16:20:36;7.20;99.90
53876;DHT22;39789;53.216;5.624;2023-02-15T16:23:12;7.10;99.90
53876;DHT22;39789;53.216;5.624;2023-02-15T16:28:56;7.00;99.90
53876;DHT22;39789;53.216;5.624;2023-02-15T16:31:22;6.90;99.90
53876;DHT22;39789;53.216;5.624;2023-02-15T16:33:51;6.90;99.90
53876;DHT22;39789;53.216;5.624;2023-02-15T16:36:23;6.80;99.90
53876;DHT22;39789;53.216;5.624;2023-02-15T16:41:25;6.70;99.90
53876;DHT22;39789;53.216;5.624;2023-02-15T16:43:54;6.70;99.90
53876;DHT22;39789;53.216;5.624;2023-02-15T16:46:26;6.70;99.90
53876;DHT22;39789;53.216;5.624;2023-02-15T16:48:56;6.60;99.90
53876;DHT22;39789;53.216;5.624;2023-02-15T16:51:25;6.60;99.90
53876;DHT22;39789;53.216;5.624;2023-02-15T16:53:53;6.60;99.90
53876;DHT22;39789;53.216;5.624;2023-02-15T16:56:27;6.50;99.90
53876;DHT22;39789;53.216;5.624;2023-02-15T16:58:57;6.50;99.90
53876;DHT22;39789;53.216;5.624;2023-02-15T17:01:25;6.50;99.90
53876;DHT22;39789;53.216;5.624;2023-02-15T17:04:16;6.50;99.90
53876;DHT22;39789;53.216;5.624;2023-02-15T17:06:59;6.40;99.90
53876;DHT22;39789;53.216;5.624;2023-02-15T17:09:25;6.40;99.90
53876;DHT22;39789;53.216;5.624;2023-02-15T17:11:51;6.40;99.90
53876;DHT22;39789;53.216;5.624;2023-02-15T17:14:25;6.30;99.90
53876;DHT22;39789;53.216;5.624;2023-02-15T17:19:33;6.30;99.90
53876;DHT22;39789;53.216;5.624;2023-02-15T17:22:06;6.30;99.90
53876;DHT22;39789;53.216;5.624;2023-02-15T17:24:40;6.20;99.90
53876;DHT22;39789;53.216;5.624;2023-02-15T17:27:16;6.20;99.90
53876;DHT22;39789;53.216;5.624;2023-02-15T17:29:46;6.20;99.90
53876;DHT22;39789;53.216;5.624;2023-02-15T17:32:21;6.10;99.90
53876;DHT22;39789;53.216;5.624;2023-02-15T17:34:50;6.20;99.90
53876;DHT22;39789;53.216;5.624;2023-02-15T17:37:29;6.10;99.90
53876;DHT22;39789;53.216;5.624;2023-02-15T17:39:55;6.10;99.90
53876;DHT22;39789;53.216;5.624;2023-02-15T17:42:21;6.10;99.90
53876;DHT22;39789;53.216;5.624;2023-02-15T17:44:48;6.10;99.90
53876;DHT22;39789;53.216;5.624;2023-02-15T17:47:18;6.00;99.90
53876;DHT22;39789;53.216;5.624;2023-02-15T17:49:45;6.10;99.90
53876;DHT22;39789;53.216;5.624;2023-02-15T17:52:15;6.10;99.90
53876;DHT22;39789;53.216;5.624;2023-02-15T17:54:40;6.10;99.90
53876;DHT22;39789;53.216;5.624;2023-02-15T17:57:24;6.10;99.90
53876;DHT22;39789;53.216;5.624;2023-02-15T17:59:51;6.00;99.90
53876;DHT22;39789;53.216;5.624;2023-02-15T18:02:36;6.00;99.90
53876;DHT22;39789;53.216;5.624;2023-02-15T18:05:21;5.90;99.90
53876;DHT22;39789;53.216;5.624;2023-02-15T18:08:17;5.90;99.90
53876;DHT22;39789;53.216;5.624;2023-02-15T18:11:04;5.90;99.90
53876;DHT22;39789;53.216;5.624;2023-02-15T18:13:48;5.90;99.90
53876;DHT22;39789;53.216;5.624;2023-02-15T18:16:19;5.90;99.90
53876;DHT22;39789;53.216;5.624;2023-02-15T18:18:55;5.90;99.90
53876;DHT22;39789;53.216;5.624;2023-02-15T18:21:24;5.80;99.90
53876;DHT22;39789;53.216;5.624;2023-02-15T18:23:50;5.80;99.90
53876;DHT22;39789;53.216;5.624;2023-02-15T18:26:21;5.90;99.90
53876;DHT22;39789;53.216;5.624;2023-02-15T18:31:24;5.90;99.90
53876;DHT22;39789;53.216;5.624;2023-02-15T18:33:57;6.50;99.90
53876;DHT22;39789;53.216;5.624;2023-02-15T18:36:43;6.20;99.90
53876;DHT22;39789;53.216;5.624;2023-02-15T18:39:30;5.70;99.90
53876;DHT22;39789;53.216;5.624;2023-02-15T18:41:58;6.10;99.90
53876;DHT22;39789;53.216;5.624;2023-02-15T18:44:25;6.10;99.90
53876;DHT22;39789;53.216;5.624;2023-02-15T18:46:50;5.50;99.90
53876;DHT22;39789;53.216;5.624;2023-02-15T18:49:22;5.90;99.90
53876;DHT22;39789;53.216;5.624;2023-02-15T18:51:48;6.20;99.90
53876;DHT22;39789;53.216;5.624;2023-02-15T18:54:26;5.90;99.90
53876;DHT22;39789;53.216;5.624;2023-02-15T18:56:54;6.40;99.90